Time;durP1;ratioP1;P1;durP2;ratioP2;P2;SDS_P1;SDS_P2;PMS_P1;PMS_P2;Temp;Humidity;BMP_temperature;BMP_pressure;BME280_temperature;BME280_humidity;BME280_pressure;Samples;Min_cycle;Max_cycle;Signal;HPM_P1;HPM_P2
2021/03/14 00:00:54;;;;;;;8.73;1.30;;;5.70;99.90;;;;;;5035036;28;20194;-74
2021/03/14 00:03:22;;;;;;;9.13;1.90;;;5.70;99.90;;;;;;5034813;28;20580;-76
2021/03/14 00:05:49;;;;;;;8.27;1.57;;;5.70;99.90;;;;;;5052367;28;20179;-74
2021/03/14 00:08:17;;;;;;;9.17;1.93;;;5.60;99.90;;;;;;5034907;28;20566;-74
2021/03/14 00:10:45;;;;;;;10.83;2.30;;;5.60;99.90;;;;;;5053114;28;20186;-74
2021/03/14 00:13:17;;;;;;;8.23;2.17;;;5.60;99.90;;;;;;5036288;28;20531;-74
2021/03/14 00:15:43;;;;;;;4.93;1.83;;;5.60;99.90;;;;;;5056336;28;20282;-73
2021/03/14 00:18:09;;;;;;;10.00;1.50;;;5.50;99.90;;;;;;5038733;28;20714;-75
2021/03/14 00:20:35;;;;;;;7.73;1.90;;;5.50;99.90;;;;;;5056234;28;20262;-75
2021/03/14 00:23:01;;;;;;;7.90;1.57;;;5.50;99.90;;;;;;5056324;28;20249;-75
2021/03/14 00:25:27;;;;;;;8.40;1.60;;;5.50;99.90;;;;;;5038262;28;20178;-74
2021/03/14 00:27:52;;;;;;;4.37;1.83;;;5.50;99.90;;;;;;5056135;28;20170;-74
2021/03/14 00:30:19;;;;;;;11.53;1.97;;;5.50;99.90;;;;;;5056331;28;20210;-74
2021/03/14 00:32:45;;;;;;;9.43;1.70;;;5.40;99.90;;;;;;5055963;28;20175;-74
2021/03/14 00:35:14;;;;;;;5.80;1.70;;;5.50;99.90;;;;;;5038432;28;20174;-75
2021/03/14 00:37:39;;;;;;;7.93;1.57;;;5.40;99.90;;;;;;5055699;28;20634;-74
2021/03/14 00:40:07;;;;;;;9.83;2.07;;;5.40;99.90;;;;;;5055789;28;20201;-74
2021/03/14 00:42:33;;;;;;;7.77;1.60;;;5.40;99.90;;;;;;5056122;28;20168;-74
2021/03/14 00:44:58;;;;;;;9.57;2.07;;;5.40;99.90;;;;;;5038215;28;20616;-75
2021/03/14 00:47:24;;;;;;;11.87;2.20;;;5.30;99.90;;;;;;5037538;28;20274;-74
2021/03/14 00:49:50;;;;;;;7.73;2.20;;;5.40;99.90;;;;;;5055318;28;20678;-74
2021/03/14 00:52:16;;;;;;;4.17;1.53;;;5.30;99.90;;;;;;5055587;28;20647;-75
2021/03/14 00:54:42;;;;;;;10.37;1.77;;;5.30;99.90;;;;;;5021537;28;20180;-75
2021/03/14 00:57:08;;;;;;;7.47;1.40;;;5.20;99.90;;;;;;5021365;28;20203;-75
2021/03/14 00:59:35;;;;;;;6.10;1.50;;;5.10;99.90;;;;;;5055886;28;20167;-75
2021/03/14 01:02:01;;;;;;;9.07;2.40;;;5.10;99.90;;;;;;5055396;28;20248;-75
2021/03/14 01:04:26;;;;;;;15.90;2.03;;;5.10;99.90;;;;;;5037889;28;20171;-75
2021/03/14 01:06:52;;;;;;;4.90;1.60;;;5.20;99.90;;;;;;5055560;28;20529;-74
2021/03/14 01:09:18;;;;;;;6.87;1.93;;;5.10;99.90;;;;;;5016388;28;20187;-75
2021/03/14 01:11:43;;;;;;;9.43;1.87;;;5.10;99.90;;;;;;5035454;28;20176;-74
2021/03/14 01:14:09;;;;;;;8.53;2.63;;;5.10;99.90;;;;;;5035328;28;20195;-75
2021/03/14 01:16:35;;;;;;;11.13;2.20;;;5.00;99.90;;;;;;5017463;28;20231;-76
2021/03/14 01:19:00;;;;;;;6.73;2.07;;;5.10;99.90;;;;;;5049882;28;20237;-75
2021/03/14 01:21:26;;;;;;;6.90;2.07;;;5.10;99.90;;;;;;5054968;28;20167;-74
2021/03/14 01:23:52;;;;;;;10.83;2.10;;;5.00;99.90;;;;;;5054559;28;20222;-74
2021/03/14 01:26:17;;;;;;;8.33;1.70;;;5.00;99.90;;;;;;5054429;28;20182;-75
2021/03/14 01:28:43;;;;;;;7.87;1.90;;;5.00;99.90;;;;;;5055257;28;20183;-75
2021/03/14 01:31:09;;;;;;;5.70;2.00;;;4.90;99.90;;;;;;5054846;28;20202;-74
2021/03/14 01:33:37;;;;;;;6.07;1.40;;;5.00;99.90;;;;;;5055005;28;20175;-74
2021/03/14 01:36:03;;;;;;;4.63;1.80;;;4.90;99.90;;;;;;5036987;28;20208;-75
2021/03/14 01:38:29;;;;;;;9.30;2.33;;;4.90;99.90;;;;;;5037296;28;20532;-75
2021/03/14 01:40:55;;;;;;;11.03;2.83;;;4.70;99.90;;;;;;5054516;28;20217;-75
2021/03/14 01:43:21;;;;;;;5.37;2.17;;;4.70;99.90;;;;;;5037090;28;20168;-75
2021/03/14 01:45:46;;;;;;;7.50;2.57;;;4.70;99.90;;;;;;5037146;28;20210;-74
2021/03/14 01:48:21;;;;;;;13.47;2.20;;;4.70;99.90;;;;;;5054682;28;20210;-75
2021/03/14 01:50:47;;;;;;;14.93;2.53;;;4.70;99.90;;;;;;5054188;28;20170;-74
2021/03/14 01:53:13;;;;;;;6.27;2.00;;;4.70;99.90;;;;;;5054516;28;20168;-75
2021/03/14 01:55:39;;;;;;;13.47;2.37;;;4.80;99.90;;;;;;5037015;28;20212;-75
2021/03/14 01:58:05;;;;;;;8.07;1.70;;;4.80;99.90;;;;;;5036884;28;20168;-74
2021/03/14 02:00:31;;;;;;;5.03;1.80;;;4.80;99.90;;;;;;5054549;28;20612;-75
2021/03/14 02:02:58;;;;;;;8.30;1.70;;;4.80;99.90;;;;;;5036274;28;20229;-74
2021/03/14 02:05:24;;;;;;;6.93;2.30;;;4.90;99.90;;;;;;5054304;28;20254;-75
2021/03/14 02:07:53;;;;;;;10.63;2.57;;;4.80;99.90;;;;;;5035876;28;20592;-76
2021/03/14 02:10:23;;;;;;;8.80;2.53;;;4.80;99.90;;;;;;5054509;28;20168;-74
2021/03/14 02:13:02;;;;;;;4.60;1.80;;;4.70;99.90;;;;;;5036033;28;20167;-74
2021/03/14 02:15:31;;;;;;;6.80;2.30;;;4.70;99.90;;;;;;5036131;28;20163;-75
2021/03/14 02:17:58;;;;;;;11.00;2.33;;;4.80;99.90;;;;;;5053934;28;20258;-74
2021/03/14 02:20:27;;;;;;;8.07;2.67;;;4.70;99.90;;;;;;5054048;28;20641;-75
2021/03/14 02:23:26;;;;;;;8.63;2.03;;;4.80;99.90;;;;;;5036080;28;20171;-75
2021/03/14 02:25:58;;;;;;;11.67;2.53;;;4.70;99.90;;;;;;5054031;28;20170;-74
2021/03/14 02:28:24;;;;;;;8.47;2.53;;;4.70;99.90;;;;;;5036086;28;20164;-75
2021/03/14 02:30:51;;;;;;;15.77;2.67;;;4.70;99.90;;;;;;5019706;28;20640;-75
2021/03/14 02:33:22;;;;;;;16.30;2.53;;;4.80;99.90;;;;;;5036172;28;20180;-75
2021/03/14 02:35:52;;;;;;;17.60;3.03;;;4.80;99.90;;;;;;5035728;28;20281;-75
2021/03/14 02:38:18;;;;;;;9.27;2.67;;;4.80;99.90;;;;;;5053775;28;20252;-75
2021/03/14 02:40:44;;;;;;;16.73;2.90;;;4.80;99.90;;;;;;5054014;28;20178;-75
2021/03/14 02:43:10;;;;;;;10.33;2.73;;;4.70;99.90;;;;;;5053739;28;20191;-75
2021/03/14 02:45:37;;;;;;;9.27;3.07;;;4.70;99.90;;;;;;5035454;28;20265;-74
2021/03/14 02:48:05;;;;;;;18.47;2.93;;;4.70;99.90;;;;;;5053556;28;20628;-75
2021/03/14 02:50:31;;;;;;;8.93;3.17;;;4.60;99.90;;;;;;5053691;28;20175;-75
2021/03/14 02:52:58;;;;;;;14.20;2.83;;;4.60;99.90;;;;;;5053863;28;20171;-74
2021/03/14 02:55:25;;;;;;;8.03;2.50;;;4.70;99.90;;;;;;5052448;28;20175;-75
2021/03/14 02:57:52;;;;;;;9.90;2.67;;;4.60;99.90;;;;;;5053527;28;20276;-75
2021/03/14 03:00:22;;;;;;;9.83;2.80;;;4.60;99.90;;;;;;5053127;28;20186;-75
2021/03/14 03:02:52;;;;;;;14.43;3.00;;;4.60;99.90;;;;;;5053818;28;20214;-74
2021/03/14 03:05:20;;;;;;;9.23;2.60;;;4.60;99.90;;;;;;5053265;28;20230;-75
2021/03/14 03:07:54;;;;;;;11.30;2.33;;;4.50;99.90;;;;;;5053612;28;20477;-75
2021/03/14 03:10:21;;;;;;;7.47;2.50;;;4.50;99.90;;;;;;5035860;28;20175;-75
2021/03/14 03:12:49;;;;;;;11.37;2.60;;;4.40;99.90;;;;;;5053420;28;20175;-74
2021/03/14 03:15:19;;;;;;;12.53;2.47;;;4.40;99.90;;;;;;5053530;28;20191;-74
2021/03/14 03:17:46;;;;;;;14.83;3.23;;;4.50;99.90;;;;;;5052872;28;20215;-74
2021/03/14 03:20:14;;;;;;;8.80;2.57;;;4.40;99.90;;;;;;5035677;28;20529;-74
2021/03/14 03:22:40;;;;;;;10.70;3.00;;;4.40;99.90;;;;;;5035085;28;20536;-75
2021/03/14 03:25:08;;;;;;;10.07;2.40;;;4.40;99.90;;;;;;5053445;28;20174;-74
2021/03/14 03:27:35;;;;;;;17.73;2.30;;;4.40;99.90;;;;;;5034819;28;20306;-75
2021/03/14 03:30:03;;;;;;;9.13;2.43;;;4.30;99.90;;;;;;5053380;28;20616;-74
2021/03/14 03:32:30;;;;;;;12.40;2.90;;;4.30;99.90;;;;;;5053732;28;20186;-75
2021/03/14 03:34:55;;;;;;;17.03;2.93;;;4.20;99.90;;;;;;5035802;28;20595;-74
2021/03/14 03:37:21;;;;;;;18.30;3.40;;;4.20;99.90;;;;;;5052911;28;20298;-75
2021/03/14 03:39:47;;;;;;;16.27;2.53;;;4.20;99.90;;;;;;5034901;28;20175;-74
2021/03/14 03:42:21;;;;;;;11.03;2.17;;;4.20;99.90;;;;;;5035468;28;20254;-75
2021/03/14 03:44:48;;;;;;;12.10;2.23;;;4.20;99.90;;;;;;5035518;28;20557;-74
2021/03/14 03:47:16;;;;;;;18.27;2.80;;;4.10;99.90;;;;;;5035098;28;20667;-75
2021/03/14 03:49:48;;;;;;;7.53;2.67;;;4.20;99.90;;;;;;5038757;28;20545;-74
2021/03/14 03:52:16;;;;;;;11.17;2.40;;;4.30;99.90;;;;;;5057252;28;20171;-75
2021/03/14 03:54:44;;;;;;;15.07;3.10;;;4.40;99.90;;;;;;5039277;28;20262;-75
2021/03/14 03:57:12;;;;;;;11.50;2.97;;;4.50;99.90;;;;;;5039154;28;20203;-74
2021/03/14 03:59:38;;;;;;;11.30;3.30;;;4.60;99.90;;;;;;5038712;28;20168;-75
2021/03/14 04:02:04;;;;;;;10.70;3.17;;;4.70;99.90;;;;;;5055978;28;20253;-75
2021/03/14 04:04:33;;;;;;;20.17;3.07;;;4.80;99.90;;;;;;5056325;28;20639;-75
2021/03/14 04:07:01;;;;;;;21.77;3.13;;;4.90;99.90;;;;;;5039010;28;20179;-75
2021/03/14 04:09:27;;;;;;;11.13;3.20;;;5.10;99.90;;;;;;5056022;28;20164;-75
2021/03/14 04:11:54;;;;;;;8.77;2.50;;;5.20;99.90;;;;;;5056440;28;20205;-76
2021/03/14 04:14:21;;;;;;;17.40;2.87;;;5.20;99.90;;;;;;5056566;28;20647;-75
2021/03/14 04:16:47;;;;;;;17.90;3.93;;;5.20;99.90;;;;;;5038777;28;20289;-74
2021/03/14 04:19:15;;;;;;;11.70;2.97;;;5.30;99.90;;;;;;5022413;28;20179;-74
2021/03/14 04:21:41;;;;;;;8.20;3.00;;;5.40;99.90;;;;;;5038431;28;20251;-75
2021/03/14 04:24:10;;;;;;;19.53;3.20;;;5.40;99.90;;;;;;5038635;28;20179;-75
2021/03/14 04:26:40;;;;;;;14.93;2.77;;;5.50;99.90;;;;;;5056314;28;20630;-74
2021/03/14 04:29:09;;;;;;;11.57;3.07;;;5.50;99.90;;;;;;5036695;28;20172;-75
2021/03/14 04:31:39;;;;;;;11.30;2.73;;;5.50;99.90;;;;;;5046543;28;20175;-75
2021/03/14 04:34:07;;;;;;;14.80;2.73;;;5.50;99.90;;;;;;5038623;28;20254;-76
2021/03/14 04:36:33;;;;;;;18.53;4.47;;;5.60;99.90;;;;;;5055517;28;20207;-75
2021/03/14 04:38:59;;;;;;;13.07;3.23;;;5.60;99.90;;;;;;5038529;28;20286;-75
2021/03/14 04:41:25;;;;;;;16.13;2.77;;;5.60;99.90;;;;;;5038029;28;20690;-74
2021/03/14 04:43:51;;;;;;;16.83;2.90;;;5.70;99.90;;;;;;5038432;28;20180;-75
2021/03/14 04:46:17;;;;;;;16.07;3.13;;;5.80;99.90;;;;;;5038059;28;20658;-74
2021/03/14 04:48:43;;;;;;;14.40;3.03;;;5.80;99.90;;;;;;5037945;28;20175;-75
2021/03/14 04:51:09;;;;;;;13.20;3.00;;;5.60;99.90;;;;;;5037616;28;20175;-75
2021/03/14 04:53:38;;;;;;;18.33;2.80;;;5.80;99.90;;;;;;5037786;28;20190;-74
2021/03/14 04:56:04;;;;;;;12.30;2.37;;;5.80;99.90;;;;;;5038090;28;20294;-74
2021/03/14 04:58:32;;;;;;;22.43;2.77;;;5.80;99.90;;;;;;5037707;28;20198;-76
2021/03/14 05:01:02;;;;;;;21.57;3.63;;;5.70;99.90;;;;;;5037748;28;20228;-75
2021/03/14 05:03:29;;;;;;;18.20;3.80;;;5.70;99.90;;;;;;5013441;28;20168;-74
2021/03/14 05:05:56;;;;;;;16.17;3.10;;;5.80;99.90;;;;;;5035777;28;20237;-76
2021/03/14 05:08:23;;;;;;;29.80;4.13;;;5.80;99.90;;;;;;5051502;28;20534;-75
2021/03/14 05:10:50;;;;;;;13.87;2.90;;;5.90;99.90;;;;;;5055446;28;20201;-74
2021/03/14 05:13:17;;;;;;;17.33;3.17;;;5.80;99.90;;;;;;5055006;28;20225;-75
2021/03/14 05:15:44;;;;;;;10.87;3.27;;;5.90;99.90;;;;;;5055628;28;20172;-76
2021/03/14 05:18:11;;;;;;;17.60;3.07;;;5.90;99.90;;;;;;5055498;28;20518;-75
2021/03/14 05:20:38;;;;;;;10.83;3.17;;;5.90;99.90;;;;;;5055060;28;20172;-75
2021/03/14 05:23:04;;;;;;;16.57;3.47;;;5.90;99.90;;;;;;5055575;28;20218;-74
2021/03/14 05:25:30;;;;;;;18.37;3.83;;;5.90;99.90;;;;;;5055214;28;20183;-74
2021/03/14 05:27:57;;;;;;;16.30;4.27;;;5.90;99.90;;;;;;5037720;28;20183;-75
2021/03/14 05:30:29;;;;;;;11.03;2.63;;;5.80;99.90;;;;;;5037672;28;20258;-75
2021/03/14 05:32:56;;;;;;;15.07;3.73;;;5.80;99.90;;;;;;5055277;28;20167;-74
2021/03/14 05:35:25;;;;;;;9.93;2.77;;;5.90;99.90;;;;;;5055074;28;20174;-75
2021/03/14 05:37:51;;;;;;;18.90;4.07;;;5.90;99.90;;;;;;5037368;28;20189;-74
2021/03/14 05:40:18;;;;;;;17.23;3.53;;;6.00;99.90;;;;;;5055333;28;20167;-74
2021/03/14 05:42:44;;;;;;;16.30;3.50;;;6.00;99.90;;;;;;5036801;28;20266;-76
2021/03/14 05:45:12;;;;;;;12.00;3.30;;;6.00;99.90;;;;;;5036522;28;20171;-75
2021/03/14 05:47:38;;;;;;;9.93;3.40;;;5.90;99.90;;;;;;5017236;28;20203;-75
2021/03/14 05:50:09;;;;;;;12.67;3.17;;;5.90;99.90;;;;;;5044753;28;20183;-75
2021/03/14 05:52:40;;;;;;;9.80;3.10;;;6.00;99.90;;;;;;5036797;28;20262;-75
2021/03/14 05:55:08;;;;;;;15.07;3.40;;;6.00;99.90;;;;;;5037141;28;20250;-74
2021/03/14 05:57:35;;;;;;;10.93;3.83;;;5.90;99.90;;;;;;5054469;28;20211;-76
2021/03/14 06:00:01;;;;;;;7.80;3.17;;;5.90;99.90;;;;;;5037192;28;20229;-74
2021/03/14 06:02:27;;;;;;;12.73;3.30;;;5.90;99.90;;;;;;5054722;28;20188;-75
2021/03/14 06:04:54;;;;;;;14.30;3.33;;;5.90;99.90;;;;;;5054829;28;20191;-75
2021/03/14 06:07:21;;;;;;;9.80;3.07;;;6.00;99.90;;;;;;5054328;28;20635;-75
2021/03/14 06:09:46;;;;;;;18.77;3.93;;;6.10;99.90;;;;;;5036755;28;20250;-75
2021/03/14 06:12:13;;;;;;;22.13;3.20;;;6.00;99.90;;;;;;5035666;28;20259;-76
2021/03/14 06:14:40;;;;;;;16.03;3.70;;;6.10;99.90;;;;;;5054527;28;20186;-75
2021/03/14 06:17:06;;;;;;;9.33;2.83;;;6.00;99.90;;;;;;5054113;28;20302;-75
2021/03/14 06:19:33;;;;;;;16.80;4.30;;;6.10;99.90;;;;;;5054499;28;20167;-75
2021/03/14 06:22:24;;;;;;;14.53;3.57;;;6.10;99.90;;;;;;5054379;28;20168;-76
2021/03/14 06:24:52;;;;;;;14.53;4.13;;;6.20;99.90;;;;;;5036281;28;20171;-75
2021/03/14 06:27:36;;;;;;;17.20;3.60;;;6.20;99.90;;;;;;5054000;28;20199;-75
2021/03/14 06:30:05;;;;;;;17.87;3.67;;;6.30;99.90;;;;;;5036235;28;20206;-75
2021/03/14 06:32:31;;;;;;;15.60;3.77;;;6.20;99.90;;;;;;5053729;28;20179;-75
2021/03/14 06:35:15;;;;;;;15.43;4.07;;;6.20;99.90;;;;;;5053976;28;20258;-75
2021/03/14 06:37:42;;;;;;;12.77;3.63;;;6.10;99.90;;;;;;5036112;28;20673;-75
2021/03/14 06:40:14;;;;;;;12.67;3.27;;;6.00;99.90;;;;;;5016450;28;20172;-75
2021/03/14 06:42:40;;;;;;;20.03;4.83;;;6.10;99.90;;;;;;5051452;28;20212;-75
2021/03/14 06:45:08;;;;;;;16.13;3.83;;;6.00;99.90;;;;;;5019468;28;20258;-75
2021/03/14 06:47:49;;;;;;;11.57;3.17;;;6.00;99.90;;;;;;5054164;28;20634;-76
2021/03/14 06:50:37;;;;;;;23.13;4.03;;;6.00;99.90;;;;;;5031054;28;20260;-75
2021/03/14 06:53:23;;;;;;;10.97;3.57;;;6.10;99.90;;;;;;5053950;28;20283;-75
2021/03/14 06:56:02;;;;;;;12.90;3.23;;;6.10;99.90;;;;;;5053825;28;20199;-75
2021/03/14 06:58:34;;;;;;;17.27;3.97;;;6.20;99.90;;;;;;5053659;28;20154;-75
2021/03/14 07:01:08;;;;;;;16.10;4.03;;;6.30;99.90;;;;;;5053183;28;20195;-75
2021/03/14 07:03:35;;;;;;;16.20;4.40;;;6.40;99.90;;;;;;5053780;28;20163;-75
2021/03/14 07:06:25;;;;;;;7.37;3.53;;;6.50;99.90;;;;;;5035728;28;20175;-75
2021/03/14 07:08:59;;;;;;;9.83;3.17;;;6.60;99.90;;;;;;5053663;28;20167;-74
2021/03/14 07:11:45;;;;;;;9.90;3.30;;;6.50;99.90;;;;;;5052997;28;20160;-74
2021/03/14 07:14:13;;;;;;;7.20;3.10;;;6.70;99.90;;;;;;5053386;28;20709;-75
2021/03/14 07:16:59;;;;;;;4.63;2.90;;;6.90;99.90;;;;;;5053414;28;20651;-74
2021/03/14 07:19:31;;;;;;;8.50;3.30;;;7.00;99.90;;;;;;5053442;28;20168;-74
2021/03/14 07:21:57;;;;;;;5.47;3.50;;;6.90;99.90;;;;;;5035064;28;20175;-75
2021/03/14 07:24:29;;;;;;;6.30;2.60;;;6.80;99.90;;;;;;5035639;28;20254;-76
2021/03/14 07:26:56;;;;;;;7.73;3.10;;;6.90;99.90;;;;;;5053453;28;20174;-75
2021/03/14 07:29:24;;;;;;;6.40;3.60;;;7.00;99.90;;;;;;5035553;28;20216;-75
2021/03/14 07:31:50;;;;;;;5.27;3.27;;;7.20;99.90;;;;;;5035191;28;20635;-75
2021/03/14 07:34:17;;;;;;;6.47;3.37;;;7.20;99.90;;;;;;5035440;28;20171;-75
2021/03/14 07:36:45;;;;;;;8.33;3.40;;;7.20;99.90;;;;;;5035488;28;20203;-75
2021/03/14 07:39:11;;;;;;;7.83;4.00;;;7.30;99.90;;;;;;5035258;28;20650;-75
2021/03/14 07:41:37;;;;;;;8.03;3.57;;;7.30;99.90;;;;;;5034931;28;20603;-75
2021/03/14 07:44:05;;;;;;;4.93;3.80;;;7.20;99.90;;;;;;5052867;28;20274;-75
2021/03/14 07:46:31;;;;;;;7.97;3.97;;;7.40;99.90;;;;;;5035011;28;20172;-75
2021/03/14 07:49:00;;;;;;;10.57;5.13;;;7.50;99.90;;;;;;5052893;28;20246;-74
2021/03/14 07:51:28;;;;;;;5.33;4.00;;;7.70;99.90;;;;;;5035254;28;20259;-75
2021/03/14 07:53:58;;;;;;;7.77;4.20;;;7.70;99.90;;;;;;5052317;28;20546;-74
2021/03/14 07:56:29;;;;;;;10.10;4.40;;;7.70;99.90;;;;;;5052791;28;20191;-75
2021/03/14 07:58:55;;;;;;;7.30;4.53;;;7.80;99.90;;;;;;5052834;28;20167;-75
2021/03/14 08:01:26;;;;;;;10.93;4.80;;;7.90;99.90;;;;;;5052876;28;20186;-75
2021/03/14 08:03:52;;;;;;;6.13;4.80;;;7.90;99.90;;;;;;5034941;28;20179;-75
2021/03/14 08:06:38;;;;;;;6.37;4.40;;;8.10;99.90;;;;;;5052866;28;20608;-76
2021/03/14 08:09:04;;;;;;;10.00;4.37;;;8.20;99.90;;;;;;5017803;28;20183;-75
2021/03/14 08:11:30;;;;;;;9.90;4.07;;;8.40;99.90;;;;;;5052714;28;20179;-75
2021/03/14 08:13:56;;;;;;;5.77;3.87;;;8.40;99.90;;;;;;5034779;28;20225;-74
2021/03/14 08:16:21;;;;;;;13.87;4.43;;;8.50;99.90;;;;;;5052843;28;20199;-75
2021/03/14 08:18:49;;;;;;;5.67;3.63;;;8.60;99.90;;;;;;5034979;28;20619;-75
2021/03/14 08:21:20;;;;;;;11.37;4.27;;;8.80;99.90;;;;;;5052461;28;20175;-75
2021/03/14 08:24:12;;;;;;;8.70;3.80;;;8.80;99.90;;;;;;5034648;28;20179;-74
2021/03/14 08:26:37;;;;;;;11.10;3.60;;;8.90;99.90;;;;;;5050351;28;20219;-75
2021/03/14 08:29:12;;;;;;;10.73;3.47;;;8.80;99.90;;;;;;5052976;28;20191;-74
2021/03/14 08:31:39;;;;;;;9.10;3.20;;;9.00;99.90;;;;;;5052905;28;20183;-75
2021/03/14 08:34:10;;;;;;;7.00;2.73;;;9.20;99.90;;;;;;5035868;28;20171;-74
2021/03/14 08:36:41;;;;;;;6.80;2.42;;;9.30;99.90;;;;;;5037616;28;20195;-74
2021/03/14 08:39:28;;;;;;;8.97;2.33;;;9.40;99.90;;;;;;5055771;28;20183;-75
2021/03/14 08:42:02;;;;;;;10.73;3.20;;;9.20;99.90;;;;;;5056308;28;20182;-75
2021/03/14 08:44:40;;;;;;;6.60;2.55;;;9.10;99.90;;;;;;5056069;28;20174;-75
2021/03/14 08:47:13;;;;;;;5.93;2.47;;;9.00;99.90;;;;;;5037793;28;20189;-75
2021/03/14 08:49:52;;;;;;;8.43;2.30;;;9.10;99.90;;;;;;5038056;28;20175;-74
2021/03/14 08:52:18;;;;;;;9.10;2.27;;;9.20;99.90;;;;;;5053845;28;20179;-75
2021/03/14 08:54:49;;;;;;;5.33;2.30;;;9.00;99.90;;;;;;5037906;28;20171;-75
2021/03/14 08:57:16;;;;;;;7.03;2.57;;;9.10;99.90;;;;;;5055979;28;20202;-76
2021/03/14 08:59:53;;;;;;;8.33;2.20;;;9.20;99.90;;;;;;5038235;28;20634;-75
2021/03/14 09:02:31;;;;;;;11.30;2.30;;;9.20;99.90;;;;;;5037894;28;20202;-75
2021/03/14 09:05:21;;;;;;;14.30;2.70;;;9.30;99.90;;;;;;5055850;28;20233;-74
2021/03/14 09:07:58;;;;;;;11.00;3.00;;;9.40;99.90;;;;;;5055558;28;20175;-75
2021/03/14 09:10:25;;;;;;;6.60;2.13;;;9.40;99.90;;;;;;5044189;28;20172;-75
2021/03/14 09:12:59;;;;;;;9.30;2.60;;;9.50;99.90;;;;;;5038894;28;20259;-76
2021/03/14 09:15:25;;;;;;;9.07;3.10;;;9.70;99.90;;;;;;5055864;28;20705;-75
2021/03/14 09:17:51;;;;;;;13.95;2.38;;;9.70;99.90;;;;;;5036853;28;20207;-76
2021/03/14 09:20:17;;;;;;;3.27;1.60;;;9.80;99.90;;;;;;5038004;28;20176;-74
2021/03/14 09:22:43;;;;;;;7.35;2.15;;;10.00;99.90;;;;;;5037688;28;20179;-74
2021/03/14 09:25:12;;;;;;;7.47;2.08;;;10.00;99.90;;;;;;5058988;28;20251;-77
2021/03/14 09:27:44;;;;;;;4.03;1.63;;;9.90;99.90;;;;;;5056891;28;20243;-75
2021/03/14 09:30:13;;;;;;;4.10;1.92;;;9.80;99.90;;;;;;5065711;28;20262;-76
2021/03/14 09:32:40;;;;;;;5.82;1.40;;;9.80;99.90;;;;;;5042025;28;20232;-75
2021/03/14 09:35:28;;;;;;;9.15;1.75;;;10.00;99.90;;;;;;5045035;28;20178;-76
2021/03/14 09:38:07;;;;;;;4.38;1.77;;;9.50;99.90;;;;;;5064111;28;20199;-76
2021/03/14 09:40:40;;;;;;;5.40;1.50;;;9.40;99.90;;;;;;5067040;28;20601;-74
2021/03/14 09:43:14;;;;;;;3.92;1.55;;;9.70;99.90;;;;;;5042877;28;20258;-76
2021/03/14 09:45:53;;;;;;;5.95;1.80;;;10.40;99.90;;;;;;5061209;28;20639;-74
2021/03/14 09:48:24;;;;;;;5.93;1.63;;;10.80;99.90;;;;;;5060441;28;20195;-75
2021/03/14 09:50:52;;;;;;;6.07;2.03;;;11.20;99.90;;;;;;5059320;28;20175;-75
2021/03/14 09:53:22;;;;;;;7.30;1.95;;;11.50;99.90;;;;;;5047016;28;20614;-75
2021/03/14 09:55:51;;;;;;;6.55;1.92;;;11.80;99.90;;;;;;5047520;28;20267;-76
2021/03/14 09:58:18;;;;;;;1.88;1.63;;;12.20;99.90;;;;;;5062950;28;20167;-75
2021/03/14 10:00:47;;;;;;;2.88;1.67;;;12.60;99.90;;;;;;5057344;28;20172;-74
2021/03/14 10:03:15;;;;;;;11.27;1.95;;;12.80;99.90;;;;;;5061374;28;20176;-75
2021/03/14 10:05:46;;;;;;;4.45;2.20;;;13.10;99.90;;;;;;5064748;28;21561;-74
2021/03/14 10:08:27;;;;;;;9.32;1.77;;;13.40;99.90;;;;;;5041215;28;20179;-75
2021/03/14 10:11:15;;;;;;;4.97;2.03;;;13.50;99.90;;;;;;5059202;28;20164;-75
2021/03/14 10:13:44;;;;;;;3.38;1.60;;;13.00;99.90;;;;;;5038582;28;20175;-75
2021/03/14 10:16:16;;;;;;;11.35;2.22;;;12.30;99.90;;;;;;5032790;28;20965;-74
2021/03/14 10:18:43;;;;;;;9.95;1.50;;;11.50;99.90;;;;;;5053114;28;20171;-75
2021/03/14 10:21:26;;;;;;;5.55;1.73;;;11.30;99.90;;;;;;5035989;28;20168;-74
2021/03/14 10:24:17;;;;;;;3.63;1.80;;;11.70;99.90;;;;;;5057341;28;20174;-74
2021/03/14 10:27:00;;;;;;;5.18;1.60;;;13.50;99.90;;;;;;5038399;28;20198;-74
2021/03/14 10:29:32;;;;;;;7.38;1.73;;;16.90;99.90;;;;;;5043198;28;20174;-74
2021/03/14 10:31:58;;;;;;;7.20;2.13;;;17.80;99.90;;;;;;5051562;28;20191;-74
2021/03/14 10:34:24;;;;;;;8.30;1.83;;;16.70;99.90;;;;;;5028204;28;20178;-75
2021/03/14 10:36:51;;;;;;;7.93;1.80;;;16.50;99.90;;;;;;5055722;28;20601;-75
2021/03/14 10:39:27;;;;;;;5.05;1.50;;;15.60;99.90;;;;;;5070506;28;20171;-74
2021/03/14 10:41:55;;;;;;;5.65;1.23;;;14.40;99.90;;;;;;5044972;28;20202;-75
2021/03/14 10:44:24;;;;;;;7.68;1.73;;;13.40;99.90;;;;;;5064932;28;20172;-75
2021/03/14 10:46:52;;;;;;;7.25;2.05;;;12.80;99.90;;;;;;5053641;28;20167;-74
2021/03/14 10:49:29;;;;;;;7.45;2.05;;;12.50;99.90;;;;;;5050537;28;20182;-74
2021/03/14 10:51:57;;;;;;;8.02;1.98;;;12.30;99.90;;;;;;5039202;28;20171;-74
2021/03/14 10:54:35;;;;;;;10.38;2.30;;;12.10;99.90;;;;;;5061056;28;20523;-74
2021/03/14 10:57:01;;;;;;;11.30;2.55;;;12.90;99.90;;;;;;5033317;28;20195;-75
2021/03/14 10:59:29;;;;;;;6.20;2.00;;;15.70;99.90;;;;;;5059777;28;20171;-74
2021/03/14 11:02:00;;;;;;;10.18;2.03;;;17.80;99.90;;;;;;5060419;28;20244;-74
2021/03/14 11:04:29;;;;;;;6.00;2.72;;;17.10;99.90;;;;;;5053575;28;20562;-75
2021/03/14 11:06:56;;;;;;;7.75;1.90;;;16.20;99.90;;;;;;5061606;28;20697;-75
2021/03/14 11:09:22;;;;;;;6.68;2.00;;;15.70;99.90;;;;;;5035059;28;20212;-75
2021/03/14 11:11:49;;;;;;;9.25;1.90;;;15.10;99.90;;;;;;5041670;28;20216;-78
2021/03/14 11:14:30;;;;;;;7.85;2.20;;;14.30;99.90;;;;;;5049849;28;20176;-76
2021/03/14 11:17:10;;;;;;;6.55;1.95;;;13.70;99.90;;;;;;5053579;28;20246;-75
2021/03/14 11:19:38;;;;;;;5.38;1.80;;;13.40;99.90;;;;;;5064932;28;20235;-74
2021/03/14 11:22:05;;;;;;;10.50;2.25;;;13.10;99.90;;;;;;5053242;28;20259;-75
2021/03/14 11:24:31;;;;;;;8.50;2.00;;;13.10;99.90;;;;;;5044802;28;20179;-74
2021/03/14 11:26:57;;;;;;;6.45;1.85;;;13.20;99.90;;;;;;5071719;28;20179;-77
2021/03/14 11:29:23;;;;;;;6.07;2.10;;;12.60;99.90;;;;;;5053315;28;20661;-75
2021/03/14 11:31:49;;;;;;;5.10;2.03;;;12.40;99.90;;;;;;5053887;28;20178;-74
2021/03/14 11:34:15;;;;;;;9.13;2.05;;;13.80;99.90;;;;;;5043470;28;20173;-75
2021/03/14 11:36:40;;;;;;;4.95;1.95;;;17.70;99.90;;;;;;5055062;28;20198;-74
2021/03/14 11:39:06;;;;;;;6.95;1.70;;;20.40;99.90;;;;;;5071603;28;20539;-75
2021/03/14 11:41:32;;;;;;;7.47;1.83;;;22.50;99.90;;;;;;5070750;28;20174;-75
2021/03/14 11:44:00;;;;;;;12.73;2.53;;;23.40;99.90;;;;;;5063884;28;20693;-74
2021/03/14 11:46:27;;;;;;;10.18;2.28;;;24.50;99.90;;;;;;5067498;28;20183;-76
2021/03/14 11:48:53;;;;;;;18.75;3.67;;;23.30;99.90;;;;;;5053276;28;20189;-75
2021/03/14 11:51:20;;;;;;;14.05;2.40;;;20.90;99.90;;;;;;5054357;28;20246;-75
2021/03/14 11:53:45;;;;;;;7.53;2.05;;;20.40;99.90;;;;;;5071714;28;20178;-75
2021/03/14 11:56:11;;;;;;;4.72;1.80;;;20.50;99.90;;;;;;5035520;28;20217;-76
2021/03/14 11:58:37;;;;;;;8.05;2.00;;;21.50;99.90;;;;;;5038016;28;20563;-74
2021/03/14 12:01:03;;;;;;;7.90;2.40;;;21.50;99.90;;;;;;5071785;28;20207;-74
2021/03/14 12:03:28;;;;;;;6.10;1.88;;;21.80;99.90;;;;;;5072826;28;20166;-76
2021/03/14 12:05:54;;;;;;;7.05;2.13;;;21.90;99.90;;;;;;5057172;28;20180;-74
2021/03/14 12:08:20;;;;;;;5.53;1.60;;;22.90;99.90;;;;;;5055261;28;20182;-75
2021/03/14 12:10:46;;;;;;;5.75;1.63;;;21.80;99.90;;;;;;5058523;28;20191;-75
2021/03/14 12:13:11;;;;;;;8.77;1.88;;;20.90;99.90;;;;;;5066967;28;20456;-75
2021/03/14 12:15:37;;;;;;;5.18;1.85;;;19.90;99.90;;;;;;5066190;28;20695;-78
2021/03/14 12:18:03;;;;;;;6.25;1.65;;;20.40;99.90;;;;;;5021748;28;20240;-75
2021/03/14 12:20:28;;;;;;;9.93;2.22;;;17.80;99.90;;;;;;5076028;28;20173;-74
2021/03/14 12:22:54;;;;;;;8.20;2.10;;;15.00;99.90;;;;;;5056630;28;20262;-75
2021/03/14 12:25:20;;;;;;;5.93;1.75;;;14.00;99.90;;;;;;5055361;28;20659;-74
2021/03/14 12:27:46;;;;;;;4.00;1.63;;;13.50;99.90;;;;;;5061834;28;20193;-74
2021/03/14 12:30:12;;;;;;;12.15;2.13;;;13.30;99.90;;;;;;5076000;28;20163;-74
2021/03/14 12:32:38;;;;;;;7.05;2.03;;;12.90;99.90;;;;;;5057021;28;20175;-74
2021/03/14 12:35:05;;;;;;;9.57;1.85;;;12.60;99.90;;;;;;5074767;28;20519;-75
2021/03/14 12:37:30;;;;;;;10.13;1.85;;;12.40;99.90;;;;;;5067516;28;20282;-75
2021/03/14 12:39:56;;;;;;;15.68;2.13;;;12.30;99.90;;;;;;5057626;28;20271;-74
2021/03/14 12:42:22;;;;;;;8.60;2.25;;;12.30;99.90;;;;;;5033533;28;20267;-74
2021/03/14 12:44:48;;;;;;;4.13;1.38;;;12.30;99.90;;;;;;5052310;28;20258;-74
2021/03/14 12:47:13;;;;;;;7.60;1.80;;;12.50;99.90;;;;;;5042587;28;20184;-74
2021/03/14 12:49:39;;;;;;;9.25;2.08;;;12.70;99.90;;;;;;5055241;28;20195;-75
2021/03/14 12:52:05;;;;;;;12.30;2.05;;;12.80;99.90;;;;;;5067692;28;20183;-74
2021/03/14 12:54:31;;;;;;;14.52;2.42;;;12.90;99.90;;;;;;5073462;28;20654;-75
2021/03/14 12:56:56;;;;;;;7.93;1.95;;;13.00;99.90;;;;;;5073775;28;20232;-74
2021/03/14 12:59:22;;;;;;;10.80;1.85;;;12.80;99.90;;;;;;5062768;28;20237;-75